Terminal Aerodrome Forecast
Issued by NWS Spokane, WA

Home | Current Version | Previous Version | Text Only | Print | Product List | Glossary On
Versions: 1 2 3 4 5 6 7 8 9 10 11 12 13 14 15 16 17 18 19 20 21 22 23 24 25 26
000
FTUS46 KOTX 011759 AAA
TAFGEG
TAF AMD
KGEG 011759Z 0118/0218 22012KT P6SM VCSH SCT015 BKN080 BKN190
     FM012100 25014G20KT P6SM VCSH SCT060 BKN100
     FM020300 20006KT P6SM SCT080 SCT150=

USA.gov is the U.S. government's official web portal to all federal, state and local government web resources and services.